In Rescue
 
Open Full Screen Window  High Contrast Mode
Wind Gusting 00 knots
07
July 25, 2021 7:41 AM EDT
Weather Information
Wind Direction
  250 °
Wind Speed
  07 kt (8 mph)
Wind Gust
  00 kt (0 mph)
Altimeter
29.81 in
Visibility
10 SM
Temperature
19° C
66° F
Dewpoint
16° C
61° F
Humidity
83%
Sky Condition
Clear
VFR

METAR KSLH 251141Z AUTO 25007KT 10SM CLR 19/16 A2981 RMK AO2

FAA Disclaimer: The data displayed is for advisory purposes only and is not to be used for flight planning or operations.